Time;durP1;ratioP1;P1;durP2;ratioP2;P2;SDS_P1;SDS_P2;PMS_P1;PMS_P2;Temp;Humidity;BMP_temperature;BMP_pressure;BME280_temperature;BME280_humidity;BME280_pressure;Samples;Min_cycle;Max_cycle;Signal;HPM_P1;HPM_P2
2021/04/11 00:01:40;;;;;;;8.65;6.07;;;;;;;7.03;68.98;100512.34;5069595;28;20029;-88
2021/04/11 00:04:06;;;;;;;9.25;5.97;;;;;;;7.05;69.01;100513.09;5072036;28;20444;-88
2021/04/11 00:06:31;;;;;;;10.43;6.25;;;;;;;6.93;68.91;100517.19;5068504;28;20016;-89
2021/04/11 00:08:57;;;;;;;7.32;6.00;;;;;;;7.07;67.77;100519.09;5069689;28;20082;-89
2021/04/11 00:11:23;;;;;;;6.00;5.30;;;;;;;7.12;68.10;100517.06;5070246;28;20037;-88
2021/04/11 00:13:51;;;;;;;9.38;5.93;;;;;;;7.15;67.81;100511.69;5071706;28;20052;-88
2021/04/11 00:16:16;;;;;;;7.65;5.57;;;;;;;7.08;67.53;100510.31;5070963;28;20081;-88
2021/04/11 00:18:42;;;;;;;7.30;5.53;;;;;;;7.12;67.32;100506.63;5071023;28;20032;-88
2021/04/11 00:21:07;;;;;;;7.30;5.15;;;;;;;7.15;68.33;100501.25;5069586;28;20411;-88
2021/04/11 00:23:33;;;;;;;8.35;6.10;;;;;;;6.91;69.12;100507.72;5070572;28;20470;-89
2021/04/11 00:25:59;;;;;;;8.82;6.25;;;;;;;7.08;68.93;100509.50;5069435;28;20098;-88
2021/04/11 00:28:24;;;;;;;7.10;6.13;;;;;;;7.01;67.95;100503.75;5069572;28;20467;-89
2021/04/11 00:30:50;;;;;;;7.20;5.43;;;;;;;7.21;67.00;100509.69;5070850;28;20360;-89
2021/04/11 00:33:24;;;;;;;8.43;6.05;;;;;;;7.01;67.64;100508.97;5066746;28;20071;-88
2021/04/11 00:35:54;;;;;;;7.03;5.65;;;;;;;6.95;67.95;100506.66;5070518;28;20115;-89
2021/04/11 00:38:19;;;;;;;7.93;5.22;;;;;;;6.94;68.21;100502.38;5069076;28;20036;-89
2021/04/11 00:40:45;;;;;;;8.13;5.80;;;;;;;6.58;68.38;100511.13;5069612;28;20040;-89
2021/04/11 00:43:14;;;;;;;8.32;5.88;;;;;;;6.71;69.35;100522.66;5071640;28;20050;-89
2021/04/11 00:46:01;;;;;;;11.02;6.68;;;;;;;6.37;69.13;100513.03;5069570;28;20561;-88
2021/04/11 00:48:29;;;;;;;7.75;5.88;;;;;;;6.58;67.77;100515.50;5069190;28;20386;-88
2021/04/11 00:51:09;;;;;;;8.40;6.75;;;;;;;6.62;67.92;100517.88;5069656;28;20025;-89
2021/04/11 00:53:34;;;;;;;10.77;6.45;;;;;;;6.55;68.46;100514.72;5071205;28;20046;-88
2021/04/11 00:56:01;;;;;;;8.32;6.60;;;;;;;6.42;69.22;100516.25;5070760;28;20461;-88
2021/04/11 00:58:27;;;;;;;8.73;7.03;;;;;;;6.43;69.04;100514.50;5069824;28;20067;-89
2021/04/11 01:00:53;;;;;;;9.10;6.78;;;;;;;6.50;68.42;100510.69;5068184;28;20052;-88
2021/04/11 01:03:24;;;;;;;8.23;6.93;;;;;;;6.43;68.14;100514.50;5070703;28;20031;-88
2021/04/11 01:05:50;;;;;;;8.00;7.18;;;;;;;6.41;68.41;100511.13;5071656;28;20060;-88
2021/04/11 01:08:21;;;;;;;10.05;7.47;;;;;;;6.38;68.03;100513.84;5070421;28;20094;-88
2021/04/11 01:11:09;;;;;;;9.25;7.88;;;;;;;6.31;68.70;100513.31;5071002;28;20024;-88
2021/04/11 01:13:37;;;;;;;8.77;7.47;;;;;;;6.27;68.23;100502.19;5071374;28;20028;-88
2021/04/11 01:16:03;;;;;;;9.88;8.07;;;;;;;6.33;68.62;100506.28;5054740;28;20028;-88
2021/04/11 01:18:28;;;;;;;8.55;7.15;;;;;;;6.18;69.11;100507.00;5071776;28;20020;-89
2021/04/11 01:20:55;;;;;;;10.70;8.13;;;;;;;6.25;69.44;100508.41;5070177;28;20024;-88
2021/04/11 01:23:23;;;;;;;9.73;7.13;;;;;;;6.28;68.73;100511.72;5070384;28;20031;-88
2021/04/11 01:25:51;;;;;;;12.35;8.05;;;;;;;6.25;69.54;100506.63;5069462;28;20064;-88
2021/04/11 01:28:21;;;;;;;11.52;7.97;;;;;;;6.26;69.95;100505.75;5070360;28;20056;-88
2021/04/11 01:30:48;;;;;;;11.55;8.80;;;;;;;6.11;71.26;100502.09;5072770;28;20033;-88
2021/04/11 01:33:17;;;;;;;11.18;8.50;;;;;;;6.32;69.85;100508.03;5062483;28;20033;-88
2021/04/11 01:35:45;;;;;;;13.75;8.52;;;;;;;6.39;69.84;100507.75;5060684;28;20031;-88
2021/04/11 01:38:12;;;;;;;11.05;9.13;;;;;;;6.37;70.53;100514.78;5050806;28;20092;-88
2021/04/11 01:41:04;;;;;;;10.43;8.40;;;;;;;6.30;70.43;100512.50;5069793;28;20021;-88
2021/04/11 01:43:31;;;;;;;10.02;8.90;;;;;;;6.41;70.30;100518.94;5065746;28;20085;-88
2021/04/11 01:45:57;;;;;;;14.43;9.43;;;;;;;6.53;69.44;100516.56;5072161;28;20031;-89
2021/04/11 01:48:24;;;;;;;11.45;9.10;;;;;;;6.55;69.59;100521.72;5074402;28;20028;-88
2021/04/11 01:50:51;;;;;;;12.13;8.80;;;;;;;6.52;69.06;100517.50;5073401;28;20398;-88
2021/04/11 01:53:18;;;;;;;11.38;8.18;;;;;;;6.57;70.18;100519.03;5069760;28;20036;-88
2021/04/11 01:55:44;;;;;;;11.57;9.07;;;;;;;6.53;70.17;100513.13;5073368;28;20062;-88
2021/04/11 01:58:11;;;;;;;14.25;9.82;;;;;;;6.59;69.67;100515.41;5072242;28;20117;-88
2021/04/11 02:00:39;;;;;;;13.20;10.68;;;;;;;6.57;69.85;100516.41;5071714;28;20067;-88
2021/04/11 02:03:10;;;;;;;15.07;10.43;;;;;;;6.59;69.90;100523.25;5071857;28;20531;-88
2021/04/11 02:05:44;;;;;;;14.13;11.50;;;;;;;6.55;70.27;100521.72;5074746;28;20035;-87
2021/04/11 02:08:14;;;;;;;12.80;10.32;;;;;;;6.64;69.40;100520.44;5064864;28;20032;-88
2021/04/11 02:10:44;;;;;;;14.43;10.65;;;;;;;6.61;69.62;100520.56;5071684;28;20060;-88
2021/04/11 02:13:10;;;;;;;15.55;11.02;;;;;;;6.65;69.47;100522.94;5072406;28;20103;-89
2021/04/11 02:15:41;;;;;;;14.20;11.88;;;;;;;6.69;68.68;100524.47;5072383;28;20028;-88
2021/04/11 02:18:06;;;;;;;16.33;10.75;;;;;;;6.72;68.76;100541.75;5071632;28;20047;-88
2021/04/11 02:20:32;;;;;;;19.20;11.75;;;;;;;6.64;68.29;100536.91;5073194;28;20486;-88
2021/04/11 02:22:58;;;;;;;13.23;11.13;;;;;;;6.66;68.72;100531.63;5073960;28;20032;-88
2021/04/11 02:25:27;;;;;;;14.38;11.65;;;;;;;6.68;68.76;100537.63;5061982;28;20029;-88
2021/04/11 02:27:55;;;;;;;17.00;11.60;;;;;;;6.73;68.63;100544.31;5067597;28;20451;-88
2021/04/11 02:30:23;;;;;;;17.50;11.35;;;;;;;6.73;68.44;100546.03;5071408;28;20024;-88
2021/04/11 02:32:49;;;;;;;19.95;12.88;;;;;;;6.46;69.97;100550.88;5068519;28;20309;-88
2021/04/11 02:35:18;;;;;;;19.38;13.52;;;;;;;6.59;69.21;100544.13;5072706;28;20033;-88
2021/04/11 02:37:45;;;;;;;15.88;12.60;;;;;;;6.66;68.35;100555.13;5072331;28;20110;-88
2021/04/11 02:40:22;;;;;;;16.77;12.35;;;;;;;6.65;68.87;100554.25;5059329;28;20031;-88
2021/04/11 02:42:48;;;;;;;15.55;12.23;;;;;;;6.59;69.12;100548.50;5069079;28;20074;-88
2021/04/11 02:45:19;;;;;;;18.55;12.80;;;;;;;6.58;69.18;100552.03;5051508;28;20029;-88
2021/04/11 02:47:45;;;;;;;;;;;;;;;6.59;69.91;100558.94;5068310;28;20039;-88
2021/04/11 02:50:13;;;;;;;20.13;11.82;;;;;;;6.63;68.85;100550.88;5071287;28;19916;-88
2021/04/11 02:52:45;;;;;;;16.30;11.93;;;;;;;6.63;69.22;100548.25;5073331;28;20028;-88
2021/04/11 02:55:12;;;;;;;19.17;12.65;;;;;;;6.73;68.22;100561.69;5055059;28;20539;-88
2021/04/11 02:57:38;;;;;;;15.88;12.80;;;;;;;6.55;69.07;100564.28;5064322;28;20127;-88
2021/04/11 03:00:08;;;;;;;15.68;12.32;;;;;;;6.73;68.81;100565.19;5071692;28;20020;-88
2021/04/11 03:02:33;;;;;;;16.65;12.32;;;;;;;6.67;68.68;100562.00;5070958;28;20059;-88
2021/04/11 03:04:59;;;;;;;16.73;11.65;;;;;;;6.69;68.98;100571.44;5073117;28;20446;-89
2021/04/11 03:07:40;;;;;;;15.48;11.32;;;;;;;6.79;68.41;100573.59;5072244;28;20035;-88
2021/04/11 03:10:10;;;;;;;14.73;11.30;;;;;;;6.66;68.41;100579.44;5072957;28;20021;-89
2021/04/11 03:12:38;;;;;;;15.05;11.02;;;;;;;6.64;69.14;100581.28;5071967;28;20024;-88
2021/04/11 03:15:06;;;;;;;17.95;11.98;;;;;;;6.63;68.96;100583.94;5072974;28;20714;-88
2021/04/11 03:17:32;;;;;;;19.70;11.77;;;;;;;6.55;69.55;100579.94;5071537;28;20024;-88
2021/04/11 03:20:05;;;;;;;15.82;11.70;;;;;;;6.65;68.87;100584.72;5071212;28;20032;-88
2021/04/11 03:22:30;;;;;;;22.95;13.85;;;;;;;6.49;69.51;100587.22;5072256;28;20883;-88
2021/04/11 03:24:56;;;;;;;18.33;12.63;;;;;;;6.55;69.92;100590.38;5072744;28;20020;-89
2021/04/11 03:27:38;;;;;;;17.55;12.40;;;;;;;6.59;70.48;100598.06;5068669;28;20532;-88
2021/04/11 03:30:13;;;;;;;;;;;;;;;6.49;70.56;100595.06;5070767;28;20036;-88
2021/04/11 03:32:43;;;;;;;16.38;11.13;;;;;;;6.59;69.55;100596.28;5069077;28;20359;-88
2021/04/11 03:35:11;;;;;;;14.73;11.57;;;;;;;6.50;69.70;100599.38;5052599;28;20045;-89
2021/04/11 03:37:39;;;;;;;15.43;11.43;;;;;;;6.53;71.04;100596.59;5063286;28;20060;-88
2021/04/11 03:40:09;;;;;;;21.50;13.23;;;;;;;6.50;70.15;100597.59;5072307;28;20083;-88
2021/04/11 03:42:36;;;;;;;16.30;11.35;;;;;;;6.67;69.59;100601.97;5070150;28;20024;-88
2021/04/11 03:45:03;;;;;;;14.40;10.55;;;;;;;6.77;68.07;100599.78;5071098;28;20028;-88
2021/04/11 03:47:28;;;;;;;14.25;10.55;;;;;;;6.41;69.41;100611.06;5072417;28;20053;-88
2021/04/11 03:50:02;;;;;;;12.80;9.95;;;;;;;6.49;69.32;100605.47;5071106;28;20013;-88
2021/04/11 03:52:33;;;;;;;11.93;8.93;;;;;;;6.62;68.74;100611.81;5070327;28;20024;-88
2021/04/11 03:55:03;;;;;;;15.57;10.65;;;;;;;6.25;70.52;100618.75;5071372;28;20039;-88
2021/04/11 03:57:47;;;;;;;13.90;9.63;;;;;;;6.49;68.51;100606.31;5071144;28;20036;-87
2021/04/11 04:00:14;;;;;;;16.27;9.60;;;;;;;6.62;68.65;100617.03;5069264;28;20028;-88
2021/04/11 04:02:43;;;;;;;16.08;10.13;;;;;;;6.58;68.59;100617.25;5070738;28;20040;-88
2021/04/11 04:05:13;;;;;;;12.25;9.57;;;;;;;6.68;67.77;100614.13;5071781;28;20379;-88
2021/04/11 04:07:59;;;;;;;14.70;9.98;;;;;;;6.73;67.50;100619.09;5070607;28;20028;-88
2021/04/11 04:10:29;;;;;;;13.10;10.43;;;;;;;6.75;67.67;100617.28;5071455;28;20029;-88
2021/04/11 04:13:06;;;;;;;15.60;10.65;;;;;;;6.59;67.87;100626.75;5071491;28;20378;-88
2021/04/11 04:16:04;;;;;;;16.70;10.57;;;;;;;6.72;67.95;100625.25;5072051;28;20448;-88
2021/04/11 04:19:00;;;;;;;16.67;11.52;;;;;;;6.54;68.14;100634.81;5043108;28;20044;-88
2021/04/11 04:21:52;;;;;;;15.30;10.48;;;;;;;6.39;68.80;100638.16;5056215;28;20067;-88
2021/04/11 04:24:55;;;;;;;14.05;10.98;;;;;;;6.30;70.07;100636.78;5070583;28;20032;-88
2021/04/11 04:27:27;;;;;;;18.20;11.55;;;;;;;6.30;69.68;100642.88;5069923;28;20082;-88
2021/04/11 04:30:11;;;;;;;20.05;12.48;;;;;;;6.47;69.25;100651.66;5070348;28;20016;-88
2021/04/11 04:32:55;;;;;;;14.25;11.07;;;;;;;6.69;67.73;100654.09;5067090;28;20101;-89
2021/04/11 04:35:33;;;;;;;17.65;12.18;;;;;;;6.18;70.28;100656.50;5071809;28;20035;-88
2021/04/11 04:38:05;;;;;;;18.95;11.73;;;;;;;6.28;70.03;100647.31;5069568;28;20029;-88
2021/04/11 04:40:43;;;;;;;19.15;12.57;;;;;;;6.09;71.70;100654.28;5071750;28;20028;-88
2021/04/11 04:43:41;;;;;;;15.90;10.98;;;;;;;5.81;73.30;100655.50;5069014;28;20060;-88
2021/04/11 04:46:16;;;;;;;17.52;11.38;;;;;;;5.91;72.46;100659.38;5069278;28;20029;-88
2021/04/11 04:48:52;;;;;;;13.80;11.43;;;;;;;6.09;71.74;100662.09;5057880;28;20040;-88
2021/04/11 04:51:29;;;;;;;14.48;10.88;;;;;;;6.34;70.56;100670.50;5070252;28;20017;-88
2021/04/11 04:54:08;;;;;;;18.88;11.57;;;;;;;6.59;69.30;100669.34;5070373;28;20024;-88
2021/04/11 04:56:55;;;;;;;15.30;10.30;;;;;;;6.32;70.04;100661.91;5069480;28;20043;-88
2021/04/11 04:59:24;;;;;;;13.27;9.38;;;;;;;6.56;68.52;100669.50;5070387;28;20033;-88
2021/04/11 05:02:01;;;;;;;14.88;9.43;;;;;;;6.60;67.15;100667.59;5069521;28;20046;-88
2021/04/11 05:04:30;;;;;;;10.98;8.57;;;;;;;6.72;67.36;100669.63;5070248;28;20108;-88
2021/04/11 05:07:01;;;;;;;12.50;8.45;;;;;;;6.69;65.93;100675.81;5069471;28;20483;-88
2021/04/11 05:09:37;;;;;;;14.93;8.83;;;;;;;6.57;66.20;100676.41;5069591;28;20075;-88
2021/04/11 05:12:15;;;;;;;12.50;8.15;;;;;;;6.57;66.31;100668.56;5068965;28;20763;-89
2021/04/11 05:14:49;;;;;;;10.77;7.72;;;;;;;6.52;65.59;100681.00;5071214;28;20020;-88
2021/04/11 05:17:21;;;;;;;10.90;7.18;;;;;;;6.64;66.13;100688.25;5069188;28;20436;-89
2021/04/11 05:19:50;;;;;;;9.48;6.78;;;;;;;6.37;66.99;100681.72;5070689;28;20032;-89
2021/04/11 05:22:19;;;;;;;10.75;7.03;;;;;;;6.47;66.17;100682.97;5074055;28;20462;-88
2021/04/11 05:24:47;;;;;;;11.13;5.97;;;;;;;6.32;65.88;100682.78;5072276;28;20056;-88
2021/04/11 05:27:22;;;;;;;11.57;5.82;;;;;;;6.62;64.91;100694.47;5072640;28;20030;-88
2021/04/11 05:30:14;;;;;;;10.55;6.35;;;;;;;6.46;66.33;100689.97;5073512;28;20017;-89
2021/04/11 05:32:40;;;;;;;9.70;6.22;;;;;;;6.49;65.23;100695.00;5072067;28;20032;-88
2021/04/11 05:35:06;;;;;;;11.65;5.28;;;;;;;6.66;64.38;100699.47;5074940;28;20025;-88
2021/04/11 05:37:32;;;;;;;9.10;6.28;;;;;;;6.74;64.22;100704.31;5064809;28;20483;-88
2021/04/11 05:40:06;;;;;;;9.07;6.18;;;;;;;6.64;64.65;100710.91;5055713;28;20086;-88
2021/04/11 05:42:32;;;;;;;10.95;6.40;;;;;;;6.78;64.27;100712.84;5074605;28;20100;-88
2021/04/11 05:45:10;;;;;;;11.45;6.38;;;;;;;6.71;63.68;100705.31;5072190;28;20461;-88
2021/04/11 05:47:46;;;;;;;8.55;6.32;;;;;;;6.85;63.14;100722.06;5074712;28;20024;-89
2021/04/11 05:50:23;;;;;;;11.18;7.60;;;;;;;6.71;63.84;100720.97;5072194;28;20031;-88
2021/04/11 05:53:06;;;;;;;12.43;8.38;;;;;;;6.78;64.03;100720.69;5075190;28;20027;-89
2021/04/11 05:55:37;;;;;;;12.68;9.50;;;;;;;6.73;64.63;100728.72;5073606;28;20104;-88
2021/04/11 05:58:11;;;;;;;12.57;8.88;;;;;;;6.79;64.17;100727.59;5058702;28;20041;-89
2021/04/11 06:00:53;;;;;;;15.18;9.55;;;;;;;6.65;64.49;100731.69;5056348;28;20028;-88
2021/04/11 06:03:21;;;;;;;;;;;;;;;6.80;63.89;100735.34;5073394;28;20055;-90
2021/04/11 06:06:06;;;;;;;12.48;8.95;;;;;;;6.80;63.87;100737.97;5074305;28;19912;-89
2021/04/11 06:08:50;;;;;;;16.92;9.18;;;;;;;6.91;63.38;100737.44;5074063;28;20024;-89
2021/04/11 06:11:24;;;;;;;14.18;8.27;;;;;;;6.95;63.88;100746.81;5072716;28;20486;-89
2021/04/11 06:14:00;;;;;;;12.95;8.57;;;;;;;6.94;63.99;100742.53;5073462;28;20039;-89
2021/04/11 06:16:27;;;;;;;13.55;8.80;;;;;;;7.04;62.51;100754.22;5072651;28;20082;-89
2021/04/11 06:18:54;;;;;;;11.98;8.57;;;;;;;6.93;62.58;100757.34;5073486;28;20115;-92
2021/04/11 06:21:40;;;;;;;13.77;8.90;;;;;;;7.09;62.25;100754.00;5079944;28;20036;-96
2021/04/11 06:24:24;;;;;;;12.13;8.57;;;;;;;7.11;62.46;100766.06;5084250;28;20113;-96
2021/04/11 06:27:01;;;;;;;15.45;9.18;;;;;;;7.09;62.78;100757.47;5078559;28;20024;-96
2021/04/11 06:29:39;;;;;;;11.70;8.30;;;;;;;7.00;62.78;100757.91;5088382;28;20108;-96
2021/04/11 06:32:12;;;;;;;12.10;9.68;;;;;;;7.03;61.84;100755.16;5093980;28;20027;-96
2021/04/11 06:42:51;;;;;;;10.48;7.55;;;;;;;7.45;60.78;100780.09;5247821;22;20053;-94
2021/04/11 06:45:43;;;;;;;14.40;7.97;;;;;;;7.60;59.80;100778.50;5050836;28;20037;-94
2021/04/11 06:48:11;;;;;;;12.15;7.15;;;;;;;7.69;59.31;100777.22;5041667;28;20031;-94
2021/04/11 06:50:55;;;;;;;12.07;7.07;;;;;;;7.87;59.23;100786.72;5052867;28;20032;-94
2021/04/11 06:53:21;;;;;;;15.45;7.28;;;;;;;7.82;59.34;100788.75;5059866;28;20040;-96
2021/04/11 06:56:02;;;;;;;12.85;7.32;;;;;;;8.04;59.37;100790.28;5061663;28;20024;-95
2021/04/11 06:58:49;;;;;;;9.25;6.15;;;;;;;8.04;59.23;100792.91;5057608;28;20043;-95
2021/04/11 07:01:54;;;;;;;11.07;6.60;;;;;;;8.18;58.39;100795.63;5059394;28;20098;-95
2021/04/11 07:04:20;;;;;;;9.43;5.82;;;;;;;8.24;57.19;100803.16;5071469;28;20036;-95
2021/04/11 07:07:23;;;;;;;11.10;6.18;;;;;;;8.10;57.39;100795.19;5065815;28;20028;-96
2021/04/11 07:10:05;;;;;;;10.07;6.22;;;;;;;8.24;57.87;100800.53;5058947;28;20025;-95
2021/04/11 07:13:01;;;;;;;11.40;6.47;;;;;;;8.15;58.16;100808.84;5054055;28;20025;-95
2021/04/11 07:15:39;;;;;;;8.60;5.85;;;;;;;8.48;56.57;100814.16;5063162;28;20033;-96
2021/04/11 07:18:22;;;;;;;11.20;6.90;;;;;;;8.59;56.25;100821.44;5065858;28;20036;-95
2021/04/11 07:21:12;;;;;;;13.45;7.15;;;;;;;8.70;56.07;100820.84;5084590;28;20482;-96
2021/04/11 07:23:56;;;;;;;11.93;6.88;;;;;;;8.49;57.01;100822.84;5075797;28;20051;-96
2021/04/11 07:26:49;;;;;;;14.10;6.88;;;;;;;8.17;58.29;100832.31;5072529;28;20025;-95
2021/04/11 07:29:39;;;;;;;13.00;7.28;;;;;;;8.13;57.55;100840.31;5069380;28;20103;-96
2021/04/11 07:32:27;;;;;;;12.80;9.13;;;;;;;8.33;57.75;100834.09;5059422;28;20028;-96
2021/04/11 07:35:17;;;;;;;12.10;7.75;;;;;;;8.62;56.52;100836.97;5052447;28;20029;-96
2021/04/11 07:37:57;;;;;;;13.50;8.18;;;;;;;8.59;55.98;100834.53;5065920;28;20039;-96
2021/04/11 07:40:47;;;;;;;10.48;8.20;;;;;;;8.79;56.30;100833.47;5069824;28;20029;-96
2021/04/11 07:43:21;;;;;;;12.85;7.68;;;;;;;10.55;52.60;100833.97;5062245;28;20052;-94
2021/04/11 07:46:10;;;;;;;14.30;8.23;;;;;;;11.12;50.92;100833.91;5057926;28;20367;-95
2021/04/11 07:49:01;;;;;;;7.78;6.30;;;;;;;12.63;47.02;100837.94;5065748;28;20032;-93
2021/04/11 07:51:54;;;;;;;11.00;6.20;;;;;;;13.69;44.84;100840.91;5068547;28;20021;-95
2021/04/11 07:54:38;;;;;;;9.30;6.03;;;;;;;14.73;42.57;100848.94;5064016;28;20063;-96
2021/04/11 07:57:41;;;;;;;7.85;5.63;;;;;;;15.79;39.78;100849.22;5058214;28;20525;-96
2021/04/11 08:00:34;;;;;;;12.02;6.95;;;;;;;15.86;38.26;100858.34;5055671;28;20051;-96
2021/04/11 08:03:08;;;;;;;9.30;6.15;;;;;;;16.89;37.06;100853.25;5087602;28;20123;-95
2021/04/11 08:05:47;;;;;;;13.05;7.82;;;;;;;16.77;35.88;100852.47;5068203;28;20056;-95
2021/04/11 08:08:55;;;;;;;9.65;7.15;;;;;;;17.71;35.39;100852.94;5069681;28;20033;-96
2021/04/11 08:11:58;;;;;;;9.13;7.43;;;;;;;17.92;34.66;100860.81;5031770;28;20079;-96
2021/04/11 08:14:48;;;;;;;9.65;7.72;;;;;;;18.24;33.88;100865.78;5069888;28;20031;-96
2021/04/11 08:17:41;;;;;;;14.05;7.97;;;;;;;18.56;33.83;100869.09;5055900;28;20076;-96
2021/04/11 08:20:17;;;;;;;13.77;9.85;;;;;;;18.14;34.38;100875.63;5056789;28;20036;-96
2021/04/11 08:23:01;;;;;;;11.32;9.02;;;;;;;18.83;34.10;100881.63;5062712;28;20033;-96
2021/04/11 08:25:37;;;;;;;12.98;9.48;;;;;;;18.15;34.97;100872.00;5444221;22;20044;-96
2021/04/11 08:28:39;;;;;;;14.75;10.23;;;;;;;18.03;35.57;100875.78;5039276;28;20024;-96
2021/04/11 08:34:16;;;;;;;11.77;9.32;;;;;;;18.97;33.73;100888.28;5244513;22;20056;-96
2021/04/11 08:36:57;;;;;;;15.05;9.68;;;;;;;18.98;33.62;100877.50;5061379;28;20032;-96
2021/04/11 08:39:42;;;;;;;7.95;7.10;;;;;;;18.39;32.86;100890.13;5056321;28;20056;-96
2021/04/11 08:42:19;;;;;;;12.95;10.88;;;;;;;18.54;33.83;100885.22;5053994;28;20021;-96
2021/04/11 08:45:10;;;;;;;16.85;10.82;;;;;;;17.38;36.45;100894.03;5064287;28;20601;-96
2021/04/11 08:48:03;;;;;;;11.57;10.33;;;;;;;15.76;39.06;100907.75;5056347;28;20482;-96
2021/04/11 08:50:40;;;;;;;14.80;11.07;;;;;;;14.49;41.07;100910.63;5062606;28;20021;-96
2021/04/11 08:53:27;;;;;;;13.15;11.45;;;;;;;14.31;41.00;100912.03;5061232;28;20124;-96
2021/04/11 08:56:03;;;;;;;15.73;12.45;;;;;;;15.88;39.16;100912.97;5081493;28;20033;-96
2021/04/11 08:58:31;;;;;;;16.58;13.50;;;;;;;15.41;39.50;100921.16;5067812;28;20024;-96
2021/04/11 09:19:45;;;;;;;10.50;8.15;;;;;;;20.43;31.50;100929.03;5799266;22;19926;-96
2021/04/11 09:28:06;;;;;;;11.32;8.10;;;;;;;20.78;30.30;100928.97;5534034;22;20049;-93
2021/04/11 09:31:06;;;;;;;10.35;8.30;;;;;;;21.53;28.51;100916.78;5051638;28;20048;-95
2021/04/11 09:33:52;;;;;;;8.15;7.35;;;;;;;22.70;28.67;100922.84;5090629;22;20056;-96
2021/04/11 09:36:30;;;;;;;9.48;7.43;;;;;;;22.15;26.85;100925.19;5026879;28;20028;-96
2021/04/11 09:38:58;;;;;;;8.48;6.95;;;;;;;22.86;25.62;100920.09;5046027;28;20037;-95
2021/04/11 09:41:36;;;;;;;9.75;6.75;;;;;;;22.64;26.13;100918.16;5024960;28;20025;-95
2021/04/11 09:44:10;;;;;;;8.70;6.80;;;;;;;23.53;25.02;100914.28;5034801;28;20029;-96
2021/04/11 09:46:44;;;;;;;11.98;6.82;;;;;;;23.35;25.99;100927.97;5038642;28;20047;-96
2021/04/11 09:59:34;;;;;;;13.13;6.65;;;;;;;17.58;32.64;100950.66;5395511;22;20033;-96
2021/04/11 10:11:54;;;;;;;6.90;3.40;;;;;;;20.57;27.76;100944.47;5089282;27;20395;-96
2021/04/11 10:14:38;;;;;;;4.50;3.25;;;;;;;21.46;26.02;100948.66;5078430;28;20449;-96
2021/04/11 10:17:20;;;;;;;5.65;4.10;;;;;;;21.21;27.80;100942.38;5073247;28;20119;-96
2021/04/11 10:20:03;;;;;;;6.65;3.70;;;;;;;23.02;25.27;100939.81;5068484;28;20491;-96
2021/04/11 10:22:47;;;;;;;5.50;2.95;;;;;;;22.80;24.95;100942.22;5049417;28;20040;-96
2021/04/11 10:25:33;;;;;;;7.30;5.00;;;;;;;21.14;26.82;100949.34;5052752;28;20026;-96
2021/04/11 10:28:15;;;;;;;6.40;4.65;;;;;;;20.68;28.07;100957.59;5050059;28;20037;-94
2021/04/11 10:30:45;;;;;;;7.82;5.75;;;;;;;19.11;29.82;100959.66;5040741;28;20476;-95
2021/04/11 10:33:38;;;;;;;7.80;5.82;;;;;;;18.51;30.11;100956.44;5043972;28;20034;-95
2021/04/11 10:36:30;;;;;;;7.25;5.35;;;;;;;21.15;28.14;100956.38;5042637;28;20045;-93
2021/04/11 10:39:05;;;;;;;7.72;5.38;;;;;;;20.89;28.79;100965.25;5054374;28;20491;-93
2021/04/11 10:41:40;;;;;;;8.05;4.88;;;;;;;20.45;28.18;100965.22;5071148;28;20036;-96
2021/04/11 10:44:21;;;;;;;5.60;4.35;;;;;;;20.12;28.17;100972.97;5050449;28;20191;-96
2021/04/11 10:47:22;;;;;;;7.07;3.95;;;;;;;22.28;25.98;100958.69;5044863;28;20029;-96
2021/04/11 10:50:09;;;;;;;6.00;4.38;;;;;;;22.05;25.68;100966.50;5049883;28;20045;-94
2021/04/11 10:57:50;;;;;;;4.05;1.90;;;;;;;18.74;27.57;100976.41;5067633;28;20041;-96
2021/04/11 11:00:40;;;;;;;3.05;2.17;;;;;;;21.11;26.61;100977.22;5066156;28;20109;-93
2021/04/11 11:03:27;;;;;;;3.88;2.75;;;;;;;22.35;24.53;100973.03;5055285;28;20028;-94
2021/04/11 11:06:10;;;;;;;5.30;3.20;;;;;;;22.64;24.59;100969.84;5048592;28;20063;-93
2021/04/11 11:09:12;;;;;;;8.23;3.75;;;;;;;21.07;25.86;100975.84;5048403;28;20033;-94
2021/04/11 11:11:56;;;;;;;8.45;4.03;;;;;;;20.13;25.19;100979.97;5046817;28;20048;-94
2021/04/11 11:14:30;;;;;;;5.15;3.60;;;;;;;19.62;28.20;100978.75;5064049;28;20033;-93
2021/04/11 11:17:14;;;;;;;4.50;3.60;;;;;;;19.49;26.70;100980.91;5062328;28;20136;-93
2021/04/11 11:20:01;;;;;;;4.55;3.85;;;;;;;18.91;26.42;100976.69;5065012;28;20032;-94
2021/04/11 11:22:57;;;;;;;4.97;3.33;;;;;;;18.42;29.22;100974.06;5029640;28;20036;-93
2021/04/11 11:25:29;;;;;;;6.85;4.45;;;;;;;17.78;30.54;100981.56;5013587;28;20045;-94
2021/04/11 11:28:28;;;;;;;8.45;3.75;;;;;;;19.95;29.19;100977.31;5027026;28;20076;-93
2021/04/11 11:31:02;;;;;;;5.72;4.47;;;;;;;18.98;29.54;100983.13;5034561;28;20026;-94
2021/04/11 11:33:37;;;;;;;5.07;4.10;;;;;;;18.29;30.30;100979.69;5027822;28;20029;-93
2021/04/11 11:36:05;;;;;;;6.53;4.20;;;;;;;18.07;30.06;100987.91;5027377;28;20025;-93
2021/04/11 11:38:41;;;;;;;7.82;4.45;;;;;;;17.81;30.88;100985.75;5021018;28;20029;-91
2021/04/11 11:41:16;;;;;;;5.28;4.40;;;;;;;16.60;32.79;100984.66;5053160;28;20479;-94
2021/04/11 11:43:59;;;;;;;8.70;5.07;;;;;;;15.58;34.54;100999.19;5033087;28;20067;-92
2021/04/11 11:46:48;;;;;;;6.18;4.75;;;;;;;15.94;35.83;100994.59;5032468;28;20472;-94
2021/04/11 11:49:20;;;;;;;4.45;3.70;;;;;;;16.60;32.86;100987.31;5032858;28;20021;-94
2021/04/11 11:51:51;;;;;;;5.95;3.85;;;;;;;17.18;32.58;100991.28;5036193;28;20040;-93
2021/04/11 11:54:32;;;;;;;7.95;4.05;;;;;;;18.44;32.36;101001.34;5032969;28;20030;-94
2021/04/11 11:57:37;;;;;;;6.25;4.63;;;;;;;18.38;31.45;100994.81;5029290;28;20510;-94
2021/04/11 12:00:15;;;;;;;3.92;3.30;;;;;;;18.60;31.11;100996.31;5043667;28;20033;-93
2021/04/11 12:02:44;;;;;;;8.02;4.18;;;;;;;17.19;32.22;101012.41;5023863;28;20025;-92
2021/04/11 12:05:38;;;;;;;5.25;4.50;;;;;;;15.96;33.67;101021.78;5019642;28;20030;-93
2021/04/11 12:08:14;;;;;;;7.53;4.38;;;;;;;15.37;35.32;101009.69;5025667;28;20083;-93
2021/04/11 12:10:58;;;;;;;5.68;3.83;;;;;;;16.89;32.20;101015.03;5015202;28;20114;-94
2021/04/11 12:13:53;;;;;;;4.93;3.58;;;;;;;18.53;29.54;100999.69;5034416;28;20033;-93
2021/04/11 12:16:27;;;;;;;8.23;3.80;;;;;;;19.15;27.83;100997.47;5027390;28;20392;-94
2021/04/11 12:19:05;;;;;;;5.07;3.22;;;;;;;19.46;26.90;101000.69;5023717;28;20029;-93
2021/04/11 12:21:39;;;;;;;3.40;2.63;;;;;;;19.69;27.32;101010.94;5033270;28;20033;-94
2021/04/11 12:24:17;;;;;;;4.30;3.28;;;;;;;19.43;26.96;101000.97;5029926;28;20138;-95
2021/04/11 12:26:50;;;;;;;3.72;2.40;;;;;;;20.81;25.92;101010.53;5013682;28;20022;-94
2021/04/11 12:29:20;;;;;;;3.80;2.35;;;;;;;20.57;26.28;101014.66;5037463;28;20021;-94
2021/04/11 12:31:48;;;;;;;2.28;1.65;;;;;;;19.25;24.20;101014.22;5051137;28;20049;-95
2021/04/11 12:34:13;;;;;;;2.90;2.03;;;;;;;18.67;25.65;101007.22;5050542;28;20396;-94
2021/04/11 12:37:00;;;;;;;3.83;2.20;;;;;;;18.60;26.38;101012.28;5051723;28;20033;-93
2021/04/11 12:39:30;;;;;;;3.63;2.42;;;;;;;17.20;27.33;101016.75;5047131;28;20124;-93
2021/04/11 12:42:31;;;;;;;3.72;2.20;;;;;;;16.80;29.14;101027.22;5051266;28;20033;-94
2021/04/11 12:45:24;;;;;;;3.38;2.65;;;;;;;15.79;31.86;101042.50;5040912;28;20479;-94
2021/04/11 12:47:55;;;;;;;3.47;2.50;;;;;;;15.58;33.42;101049.47;5033064;28;20034;-93
2021/04/11 12:50:28;;;;;;;4.25;2.50;;;;;;;15.25;35.38;101056.44;5038074;28;20033;-93
2021/04/11 12:53:11;;;;;;;2.70;2.22;;;;;;;14.96;37.06;101054.22;5030900;28;20032;-94
2021/04/11 12:55:45;;;;;;;3.60;2.28;;;;;;;15.08;35.72;101061.22;5037251;28;20030;-96
2021/04/11 12:58:22;;;;;;;3.50;2.30;;;;;;;14.99;35.33;101047.88;5052545;28;20037;-93
2021/04/11 13:00:56;;;;;;;3.28;2.20;;;;;;;15.42;37.09;101053.34;5013402;28;20033;-92
2021/04/11 13:03:54;;;;;;;2.47;1.75;;;;;;;16.91;34.64;101051.06;5016076;28;20030;-93
2021/04/11 13:06:31;;;;;;;4.30;2.20;;;;;;;17.79;34.40;101049.66;5040577;28;20018;-94
2021/04/11 13:09:20;;;;;;;5.10;2.53;;;;;;;18.05;33.88;101057.16;5020728;28;20391;-93